createdAt,value
2022-10-21T00:01:25.009Z,12.01
2022-10-21T00:03:53.261Z,11.98
2022-10-21T00:06:22.873Z,11.50
2022-10-21T00:08:51.143Z,12.00
2022-10-21T00:11:19.373Z,11.99
2022-10-21T00:13:47.655Z,11.89
2022-10-21T00:16:18.803Z,11.77
2022-10-21T00:18:48.996Z,11.91
2022-10-21T00:21:19.370Z,11.94
2022-10-21T00:23:50.174Z,11.88
2022-10-21T00:26:19.506Z,11.81
2022-10-21T00:28:47.878Z,11.77
2022-10-21T00:31:17.840Z,11.80
2022-10-21T00:33:46.124Z,11.83
2022-10-21T00:36:15.858Z,11.92
2022-10-21T00:38:45.383Z,11.03
2022-10-21T00:41:15.995Z,11.19
2022-10-21T00:44:01.717Z,11.03
2022-10-21T00:46:36.679Z,10.91
2022-10-21T00:49:10.044Z,10.68
2022-10-21T00:51:38.885Z,11.05
2022-10-21T00:54:08.100Z,11.32
2022-10-21T00:56:38.827Z,10.86
2022-10-21T00:59:07.905Z,10.81
2022-10-21T01:01:36.307Z,11.11
2022-10-21T01:04:06.007Z,11.35
2022-10-21T01:06:36.096Z,11.27
2022-10-21T01:09:06.817Z,11.26
2022-10-21T01:11:42.600Z,11.26
2022-10-21T01:14:33.603Z,11.66
2022-10-21T01:17:20.910Z,11.74
2022-10-21T01:20:40.329Z,11.68
2022-10-21T01:23:43.744Z,11.38
2022-10-21T01:26:51.233Z,11.39
2022-10-21T01:29:37.204Z,11.63
2022-10-21T01:32:10.626Z,11.68
2022-10-21T01:34:45.587Z,11.48
2022-10-21T01:37:18.819Z,11.23
2022-10-21T01:39:53.592Z,11.34
2022-10-21T01:42:30.661Z,11.39
2022-10-21T01:45:04.316Z,11.35
2022-10-21T01:47:37.521Z,11.29
2022-10-21T01:50:11.304Z,11.33
2022-10-21T01:52:43.061Z,11.41
2022-10-21T01:55:16.958Z,11.36
2022-10-21T01:57:50.831Z,11.16
2022-10-21T02:00:19.678Z,11.23
2022-10-21T02:02:51.033Z,10.80
2022-10-21T02:05:21.470Z,9.93
2022-10-21T02:07:50.595Z,9.27
2022-10-21T02:10:20.328Z,9.57
2022-10-21T02:12:52.774Z,9.15
2022-10-21T02:15:24.664Z,9.94
2022-10-21T02:17:58.493Z,10.23
2022-10-21T02:20:30.789Z,10.08
2022-10-21T02:22:59.629Z,10.60
2022-10-21T02:25:33.165Z,9.71
2022-10-21T02:28:01.841Z,10.13
2022-10-21T02:30:38.705Z,10.74
2022-10-21T02:33:12.484Z,10.30
2022-10-21T02:35:47.402Z,9.82
2022-10-21T02:38:24.116Z,10.07
2022-10-21T02:40:56.029Z,10.13
2022-10-21T02:43:29.835Z,9.70
2022-10-21T02:46:02.179Z,9.92
2022-10-21T02:48:34.253Z,10.08
2022-10-21T02:51:03.938Z,10.06
2022-10-21T02:53:32.520Z,10.30
2022-10-21T02:56:01.058Z,10.59
2022-10-21T02:58:29.669Z,10.43
2022-10-21T03:00:57.950Z,10.42
2022-10-21T03:03:26.526Z,10.40
2022-10-21T03:05:56.157Z,10.25
2022-10-21T03:08:24.525Z,10.27
2022-10-21T03:10:53.614Z,10.60
2022-10-21T03:13:22.498Z,10.59
2022-10-21T03:15:51.250Z,10.52
2022-10-21T03:18:19.933Z,10.52
2022-10-21T03:20:50.297Z,10.34
2022-10-21T03:23:21.048Z,10.39
2022-10-21T03:25:49.503Z,10.47
2022-10-21T03:28:17.834Z,10.10
2022-10-21T03:30:46.095Z,9.84
2022-10-21T03:33:14.380Z,9.67
2022-10-21T03:35:42.724Z,9.64
2022-10-21T03:38:10.932Z,9.72
2022-10-21T03:40:40.615Z,9.46
2022-10-21T03:43:08.860Z,9.62
2022-10-21T03:45:37.121Z,9.52
2022-10-21T03:48:05.548Z,9.45
2022-10-21T03:50:33.785Z,9.33
2022-10-21T03:53:09.969Z,9.39
2022-10-21T03:55:43.645Z,9.38
2022-10-21T03:58:11.866Z,9.39
2022-10-21T04:00:40.133Z,9.46
2022-10-21T04:03:08.438Z,9.33
2022-10-21T04:05:36.783Z,9.39
2022-10-21T04:08:05.123Z,9.37
2022-10-21T04:10:33.462Z,9.35
2022-10-21T04:13:03.135Z,9.19
2022-10-21T04:15:31.408Z,8.81
2022-10-21T04:17:59.669Z,9.06
2022-10-21T04:20:27.933Z,9.10
2022-10-21T04:22:56.269Z,9.09
2022-10-21T04:25:24.641Z,9.22
2022-10-21T04:27:52.857Z,9.01
2022-10-21T04:30:22.628Z,9.11
2022-10-21T04:32:51.988Z,8.32
2022-10-21T04:35:20.260Z,8.32
2022-10-21T04:37:48.572Z,7.83
2022-10-21T04:40:16.829Z,7.79
2022-10-21T04:42:49.145Z,7.68
2022-10-21T04:45:18.209Z,7.95
2022-10-21T04:47:47.945Z,7.81
2022-10-21T04:50:16.201Z,7.89
2022-10-21T04:52:44.514Z,8.13
2022-10-21T04:55:13.190Z,7.83
2022-10-21T04:57:41.436Z,7.78
2022-10-21T05:00:11.163Z,8.03
2022-10-21T05:02:39.674Z,8.08
2022-10-21T05:05:10.590Z,8.03
2022-10-21T05:07:38.856Z,8.42
2022-10-21T05:10:07.794Z,8.42
2022-10-21T05:15:10.167Z,8.43
2022-10-21T05:17:38.500Z,8.13
2022-10-21T05:20:07.938Z,8.43
2022-10-21T05:22:38.116Z,8.63
2022-10-21T05:25:07.244Z,8.68
2022-10-21T05:27:35.539Z,8.79
2022-10-21T05:30:04.360Z,9.14
2022-10-21T05:32:32.530Z,8.87
2022-10-21T05:35:00.697Z,9.02
2022-10-21T05:37:28.915Z,9.62
2022-10-21T05:39:58.615Z,9.75
2022-10-21T05:42:27.011Z,9.90
2022-10-21T05:44:55.309Z,10.60
2022-10-21T05:47:24.153Z,10.79
2022-10-21T05:49:53.150Z,11.21
2022-10-21T05:52:21.449Z,11.59
2022-10-21T05:54:49.809Z,11.71
2022-10-21T05:57:19.565Z,11.82
2022-10-21T05:59:47.821Z,11.74
2022-10-21T06:02:16.180Z,12.29
2022-10-21T06:04:44.652Z,12.88
2022-10-21T06:07:12.969Z,12.83
2022-10-21T06:09:41.266Z,13.46
2022-10-21T06:12:09.711Z,13.50
2022-10-21T06:14:39.419Z,13.60
2022-10-21T06:17:07.708Z,13.22
2022-10-21T06:19:35.964Z,12.55
2022-10-21T06:22:04.283Z,11.99
2022-10-21T06:24:33.205Z,13.12
2022-10-21T06:27:01.495Z,13.48
2022-10-21T06:29:29.912Z,13.61
2022-10-21T06:32:00.047Z,13.70
2022-10-21T06:34:28.312Z,14.52
2022-10-21T06:36:56.597Z,14.97
2022-10-21T06:39:25.171Z,15.44
2022-10-21T06:41:53.532Z,15.47
2022-10-21T06:44:21.925Z,15.66
2022-10-21T06:46:50.248Z,15.68
2022-10-21T06:49:20.085Z,15.77
2022-10-21T06:51:48.324Z,16.75
2022-10-21T06:54:16.673Z,17.88
2022-10-21T06:56:44.924Z,17.90
2022-10-21T06:59:13.205Z,18.23
2022-10-21T07:01:58.761Z,18.97
2022-10-21T07:04:29.822Z,18.63
2022-10-21T07:06:58.322Z,18.46
2022-10-21T07:09:26.692Z,19.06
2022-10-21T07:11:55.021Z,19.23
2022-10-21T07:14:24.054Z,18.95
2022-10-21T07:16:53.537Z,18.57
2022-10-21T07:19:21.779Z,19.28
2022-10-21T07:21:52.169Z,19.20
2022-10-21T07:24:22.700Z,18.24
2022-10-21T07:29:37.364Z,18.88
2022-10-21T07:32:05.644Z,19.71
2022-10-21T07:34:33.932Z,20.08
2022-10-21T07:37:03.636Z,19.95
2022-10-21T07:39:32.700Z,20.38
2022-10-21T07:42:01.005Z,20.48
2022-10-21T07:44:29.194Z,19.71
2022-10-21T07:46:57.560Z,20.31
2022-10-21T07:49:28.857Z,19.24
2022-10-21T07:51:57.776Z,19.63
2022-10-21T07:54:27.467Z,20.07
2022-10-21T07:56:55.791Z,20.09
2022-10-21T07:59:24.504Z,19.38
2022-10-21T08:01:53.461Z,20.69
2022-10-21T08:04:25.007Z,21.10
2022-10-21T08:06:53.604Z,20.93
2022-10-21T08:09:21.912Z,21.35
2022-10-21T08:11:51.697Z,20.04
2022-10-21T08:14:19.966Z,21.23
2022-10-21T08:16:52.781Z,21.65
2022-10-21T08:19:25.392Z,21.11
2022-10-21T08:21:54.631Z,21.33
2022-10-21T08:24:23.618Z,22.34
2022-10-21T08:26:53.386Z,22.89
2022-10-21T08:29:21.731Z,23.15
2022-10-21T08:31:49.959Z,21.84
2022-10-21T08:34:18.423Z,23.44
2022-10-21T08:36:46.751Z,24.21
2022-10-21T08:39:15.128Z,22.96
2022-10-21T08:42:07.740Z,21.36
2022-10-21T08:44:48.103Z,21.17
2022-10-21T08:47:26.178Z,22.27
2022-10-21T08:50:01.685Z,22.68
2022-10-21T08:52:40.590Z,23.03
2022-10-21T08:55:16.223Z,23.15
2022-10-21T08:57:46.841Z,22.46
2022-10-21T09:00:20.650Z,22.45
2022-10-21T09:03:02.962Z,23.43
2022-10-21T09:06:04.749Z,23.70
2022-10-21T09:08:39.492Z,24.84
2022-10-21T09:11:21.107Z,23.18
2022-10-21T09:14:06.370Z,24.58
2022-10-21T09:16:44.081Z,24.28
2022-10-21T09:19:20.550Z,23.44
2022-10-21T09:22:33.148Z,24.05
2022-10-21T09:25:00.639Z,24.84
2022-10-21T09:27:44.074Z,24.53
2022-10-21T09:33:17.327Z,26.19
2022-10-21T09:35:49.447Z,27.62
2022-10-21T09:38:23.196Z,27.90
2022-10-21T09:40:59.213Z,26.82
2022-10-21T09:43:28.604Z,24.83
2022-10-21T09:45:59.254Z,25.40
2022-10-21T09:48:41.753Z,26.24
2022-10-21T09:51:23.649Z,27.23
2022-10-21T09:53:55.362Z,27.25
2022-10-21T09:56:26.497Z,26.67
2022-10-21T09:59:07.833Z,24.59
2022-10-21T10:01:39.325Z,25.08
2022-10-21T10:04:15.212Z,24.99
2022-10-21T10:06:45.273Z,26.41
2022-10-21T10:09:18.785Z,27.34
2022-10-21T10:11:53.697Z,27.34
2022-10-21T10:14:33.511Z,26.83
2022-10-21T10:17:29.040Z,27.58
2022-10-21T10:20:16.171Z,25.89
2022-10-21T10:22:45.873Z,26.38
2022-10-21T10:25:24.372Z,27.36
2022-10-21T10:27:54.851Z,24.86
2022-10-21T10:30:24.661Z,26.34
2022-10-21T10:32:56.313Z,26.34
2022-10-21T10:35:31.410Z,27.48
2022-10-21T10:38:02.639Z,26.45
2022-10-21T10:40:34.257Z,27.06
2022-10-21T10:43:07.749Z,27.05
2022-10-21T10:45:36.612Z,28.65
2022-10-21T10:48:07.965Z,29.77
2022-10-21T10:50:46.990Z,30.70
2022-10-21T10:53:31.515Z,30.95
2022-10-21T10:56:14.283Z,29.89
2022-10-21T10:58:48.642Z,29.21
2022-10-21T11:01:26.356Z,28.87
2022-10-21T11:04:02.362Z,28.44
2022-10-21T11:06:38.012Z,28.99
2022-10-21T11:09:09.176Z,29.81
2022-10-21T11:11:41.494Z,28.56
2022-10-21T11:14:17.667Z,27.84
2022-10-21T11:17:02.197Z,29.19
2022-10-21T11:19:41.911Z,28.74
2022-10-21T11:22:28.095Z,29.38
2022-10-21T11:24:59.820Z,29.58
2022-10-21T11:27:48.788Z,28.22
2022-10-21T11:30:20.916Z,28.54
2022-10-21T11:33:08.640Z,28.92
2022-10-21T11:35:55.512Z,29.73
2022-10-21T11:38:38.424Z,28.53
2022-10-21T11:41:24.163Z,27.67
2022-10-21T11:44:08.119Z,29.07
2022-10-21T11:46:45.209Z,29.28
2022-10-21T11:49:28.405Z,29.53
2022-10-21T11:52:09.464Z,30.78
2022-10-21T11:55:10.999Z,29.96
2022-10-21T11:57:47.299Z,30.92
2022-10-21T12:00:20.082Z,30.87
2022-10-21T12:03:01.145Z,31.36
2022-10-21T12:05:33.204Z,30.11
2022-10-21T12:08:12.139Z,29.42
2022-10-21T12:10:46.998Z,29.24
2022-10-21T12:13:20.908Z,30.13
2022-10-21T12:15:52.741Z,30.44
2022-10-21T12:18:23.339Z,30.82
2022-10-21T12:20:54.671Z,31.20
2022-10-21T12:23:28.986Z,30.98
2022-10-21T12:26:22.821Z,30.38
2022-10-21T12:28:58.579Z,30.53
2022-10-21T12:31:39.358Z,30.96
2022-10-21T12:34:10.884Z,30.59
2022-10-21T12:36:42.290Z,30.38
2022-10-21T12:39:19.416Z,29.90
2022-10-21T12:41:49.027Z,30.03
2022-10-21T12:44:29.137Z,30.47
2022-10-21T12:47:02.363Z,29.65
2022-10-21T12:49:33.704Z,29.78
2022-10-21T12:52:10.500Z,29.70
2022-10-21T12:54:52.165Z,29.71
2022-10-21T12:57:27.917Z,30.87
2022-10-21T13:00:38.093Z,30.92
2022-10-21T13:03:10.656Z,30.21
2022-10-21T13:06:05.189Z,29.18
2022-10-21T13:08:41.782Z,30.26
2022-10-21T13:11:37.953Z,27.90
2022-10-21T13:14:35.405Z,29.50
2022-10-21T13:17:31.502Z,29.43
2022-10-21T13:20:47.447Z,29.11
2022-10-21T13:23:47.787Z,26.85
2022-10-21T13:26:30.285Z,27.60
2022-10-21T13:29:06.854Z,27.47
2022-10-21T13:31:35.687Z,27.96
2022-10-21T13:34:04.604Z,27.26
2022-10-21T13:36:43.323Z,27.99
2022-10-21T13:39:26.968Z,27.90
2022-10-21T13:42:05.794Z,28.16
2022-10-21T13:44:38.355Z,28.37
2022-10-21T13:47:37.597Z,27.33
2022-10-21T13:50:14.557Z,27.59
2022-10-21T13:52:44.853Z,26.45
2022-10-21T13:55:20.873Z,25.92
2022-10-21T13:57:52.740Z,26.06
2022-10-21T14:00:24.372Z,25.08
2022-10-21T14:02:54.772Z,25.41
2022-10-21T14:05:34.570Z,25.35
2022-10-21T14:08:03.907Z,24.32
2022-10-21T14:10:32.920Z,24.01
2022-10-21T14:13:02.984Z,24.80
2022-10-21T14:15:40.888Z,24.19
2022-10-21T14:18:09.343Z,23.90
2022-10-21T14:20:39.221Z,23.33
2022-10-21T14:23:09.823Z,23.59
2022-10-21T14:25:38.704Z,23.22
2022-10-21T14:28:08.389Z,23.62
2022-10-21T14:30:38.079Z,23.16
2022-10-21T14:33:08.587Z,23.36
2022-10-21T14:35:36.800Z,23.51
2022-10-21T14:38:25.482Z,23.08
2022-10-21T14:41:00.052Z,22.82
2022-10-21T14:43:34.842Z,23.17
2022-10-21T14:46:06.358Z,23.52
2022-10-21T14:48:37.153Z,21.56
2022-10-21T14:51:09.834Z,21.42
2022-10-21T14:53:45.917Z,22.12
2022-10-21T14:56:19.253Z,21.55
2022-10-21T14:58:53.821Z,20.34
2022-10-21T15:01:23.344Z,19.65
2022-10-21T15:03:53.447Z,18.91
2022-10-21T15:06:24.088Z,19.25
2022-10-21T15:09:18.928Z,19.75
2022-10-21T15:11:48.321Z,19.77
2022-10-21T15:14:28.783Z,19.00
2022-10-21T15:16:58.599Z,19.33
2022-10-21T15:19:29.616Z,18.68
2022-10-21T15:22:01.093Z,19.38
2022-10-21T15:24:43.243Z,18.17
2022-10-21T15:27:17.952Z,18.09
2022-10-21T15:29:49.527Z,17.91
2022-10-21T15:32:22.746Z,17.70
2022-10-21T15:34:53.896Z,17.97
2022-10-21T15:37:22.590Z,18.51
2022-10-21T15:39:51.097Z,18.50
2022-10-21T15:42:20.427Z,19.02
2022-10-21T15:44:51.440Z,18.92
2022-10-21T15:47:20.812Z,18.54
2022-10-21T15:49:49.453Z,18.34
2022-10-21T15:52:18.121Z,18.67
2022-10-21T15:54:46.409Z,18.76
2022-10-21T15:57:24.731Z,18.75
2022-10-21T15:59:57.891Z,18.71
2022-10-21T16:02:26.268Z,18.61
2022-10-21T16:04:55.005Z,18.55
2022-10-21T16:07:29.437Z,18.27
2022-10-21T16:09:58.794Z,18.23
2022-10-21T16:12:27.096Z,18.20
2022-10-21T16:14:56.847Z,16.95
2022-10-21T16:17:28.622Z,16.78
2022-10-21T16:19:57.020Z,16.43
2022-10-21T16:22:25.581Z,16.27
2022-10-21T16:24:53.781Z,16.62
2022-10-21T16:27:43.010Z,17.14
2022-10-21T16:30:16.849Z,17.09
2022-10-21T16:32:45.876Z,17.39
2022-10-21T16:35:15.474Z,16.60
2022-10-21T16:37:44.843Z,16.94
2022-10-21T16:40:22.476Z,16.94
2022-10-21T16:42:52.360Z,17.03
2022-10-21T16:45:27.725Z,16.82
2022-10-21T16:47:58.057Z,16.57
2022-10-21T16:50:35.096Z,16.33
2022-10-21T16:53:08.632Z,16.33
2022-10-21T16:55:37.495Z,15.99
2022-10-21T16:58:05.751Z,16.12
2022-10-21T17:00:37.139Z,15.57
2022-10-21T17:03:06.376Z,15.31
2022-10-21T17:08:17.001Z,15.22
2022-10-21T17:10:45.276Z,15.69
2022-10-21T17:13:14.339Z,15.70
2022-10-21T17:15:44.931Z,15.82
2022-10-21T17:18:15.595Z,15.28
2022-10-21T17:20:44.569Z,15.55
2022-10-21T17:23:13.161Z,15.98
2022-10-21T17:25:41.654Z,15.33
2022-10-21T17:28:09.998Z,14.81
2022-10-21T17:30:38.342Z,15.30
2022-10-21T17:33:10.617Z,15.26
2022-10-21T17:35:42.156Z,15.46
2022-10-21T17:38:10.562Z,15.02
2022-10-21T17:40:38.929Z,14.79
2022-10-21T17:43:07.213Z,14.68
2022-10-21T17:45:35.496Z,14.35
2022-10-21T17:48:03.809Z,14.41
2022-10-21T17:50:33.757Z,14.55
2022-10-21T17:53:02.010Z,14.42
2022-10-21T17:55:30.471Z,14.04
2022-10-21T17:57:58.958Z,14.21
2022-10-21T18:00:27.276Z,14.02
2022-10-21T18:02:56.011Z,13.90
2022-10-21T18:05:24.309Z,14.47
2022-10-21T18:07:53.981Z,13.99
2022-10-21T18:10:22.191Z,14.12
2022-10-21T18:12:50.481Z,14.09
2022-10-21T18:15:19.562Z,14.53
2022-10-21T18:17:47.973Z,14.50
2022-10-21T18:20:17.245Z,14.51
2022-10-21T18:22:45.527Z,14.98
2022-10-21T18:25:15.540Z,15.15
2022-10-21T18:30:17.050Z,15.01
2022-10-21T18:32:45.304Z,15.13
2022-10-21T18:35:15.079Z,15.21
2022-10-21T18:37:43.565Z,15.01
2022-10-21T18:40:12.550Z,15.06
2022-10-21T18:42:42.162Z,15.23
2022-10-21T18:45:11.624Z,15.11
2022-10-21T18:47:40.946Z,15.24
2022-10-21T18:50:11.159Z,15.01
2022-10-21T18:52:39.392Z,14.27
2022-10-21T18:55:08.101Z,14.57
2022-10-21T18:57:36.436Z,14.37
2022-10-21T19:00:24.560Z,13.81
2022-10-21T19:02:53.136Z,13.94
2022-10-21T19:05:21.405Z,14.36
2022-10-21T19:07:49.743Z,14.15
2022-10-21T19:10:18.487Z,14.07
2022-10-21T19:12:47.079Z,14.13
2022-10-21T19:15:15.346Z,14.48
2022-10-21T19:17:44.961Z,14.54
2022-10-21T19:20:14.741Z,14.53
2022-10-21T19:22:43.033Z,13.96
2022-10-21T19:25:11.487Z,13.48
2022-10-21T19:27:40.073Z,14.26
2022-10-21T19:30:09.725Z,14.01
2022-10-21T19:32:38.318Z,14.37
2022-10-21T19:35:09.011Z,14.57
2022-10-21T19:37:37.250Z,14.67
2022-10-21T19:40:06.430Z,14.67
2022-10-21T19:42:35.098Z,14.64
2022-10-21T19:45:03.434Z,14.50
2022-10-21T19:47:31.696Z,14.33
2022-10-21T19:50:00.125Z,14.43
2022-10-21T19:52:29.879Z,14.38
2022-10-21T19:54:58.184Z,14.08
2022-10-21T19:57:26.515Z,13.48
2022-10-21T19:59:54.753Z,12.87
2022-10-21T20:02:22.963Z,12.89
2022-10-21T20:04:51.251Z,12.64
2022-10-21T20:07:19.458Z,12.69
2022-10-21T20:09:49.109Z,12.60
2022-10-21T20:12:17.379Z,12.77
2022-10-21T20:14:45.698Z,13.06
2022-10-21T20:17:16.127Z,13.71
2022-10-21T20:19:48.605Z,14.09
2022-10-21T20:22:17.020Z,14.06
2022-10-21T20:24:46.334Z,13.79
2022-10-21T20:27:16.456Z,14.26
2022-10-21T20:29:44.700Z,13.90
2022-10-21T20:32:13.022Z,14.11
2022-10-21T20:34:43.208Z,14.05
2022-10-21T20:37:11.569Z,14.11
2022-10-21T20:39:40.706Z,14.21
2022-10-21T20:42:08.929Z,14.05
2022-10-21T20:44:38.883Z,13.98
2022-10-21T20:47:07.199Z,13.73
2022-10-21T20:49:35.413Z,13.45
2022-10-21T20:52:03.690Z,13.34
2022-10-21T20:54:33.495Z,13.42
2022-10-21T20:57:01.688Z,13.40
2022-10-21T20:59:29.969Z,12.45
2022-10-21T21:01:59.642Z,12.66
2022-10-21T21:04:27.844Z,13.28
2022-10-21T21:06:56.199Z,13.56
2022-10-21T21:12:14.168Z,13.79
2022-10-21T21:14:42.349Z,13.77
2022-10-21T21:17:11.940Z,13.75
2022-10-21T21:19:40.468Z,13.85
2022-10-21T21:22:09.104Z,13.87
2022-10-21T21:24:37.273Z,13.73
2022-10-21T21:27:05.697Z,13.51
2022-10-21T21:29:34.064Z,13.62
2022-10-21T21:32:02.355Z,13.43
2022-10-21T21:34:32.180Z,13.27
2022-10-21T21:37:00.946Z,13.17
2022-10-21T21:39:29.315Z,13.13
2022-10-21T21:41:57.730Z,13.18
2022-10-21T21:44:26.016Z,13.04
2022-10-21T21:46:54.277Z,12.87
2022-10-21T21:49:22.653Z,12.86
2022-10-21T21:51:52.349Z,12.85
2022-10-21T21:54:20.613Z,12.69
2022-10-21T21:56:50.184Z,12.77
2022-10-21T21:59:20.279Z,12.57
2022-10-21T22:01:48.610Z,12.70
2022-10-21T22:04:16.901Z,12.61
2022-10-21T22:06:45.085Z,12.31
2022-10-21T22:09:14.817Z,12.36
2022-10-21T22:11:43.128Z,12.24
2022-10-21T22:14:11.360Z,12.34
2022-10-21T22:16:40.149Z,12.01
2022-10-21T22:19:08.454Z,11.95
2022-10-21T22:21:36.709Z,12.12
2022-10-21T22:24:05.998Z,12.18
2022-10-21T22:26:35.681Z,12.15
2022-10-21T22:29:03.865Z,12.22
2022-10-21T22:31:32.062Z,12.25
2022-10-21T22:34:02.143Z,12.24
2022-10-21T22:36:30.907Z,11.98
2022-10-21T22:38:59.426Z,11.56
2022-10-21T22:41:27.725Z,11.99
2022-10-21T22:43:57.315Z,12.05
2022-10-21T22:46:40.941Z,11.84
2022-10-21T22:49:11.272Z,11.95
2022-10-21T22:51:39.554Z,11.99
2022-10-21T22:54:19.288Z,10.32
2022-10-21T22:56:52.611Z,12.00
2022-10-21T22:59:22.560Z,12.00
2022-10-21T23:01:50.823Z,11.93
2022-10-21T23:04:19.116Z,11.79
2022-10-21T23:06:47.392Z,11.71
2022-10-21T23:09:15.720Z,11.56
2022-10-21T23:11:44.362Z,11.13
2022-10-21T23:14:12.593Z,11.06
2022-10-21T23:16:42.482Z,10.52
2022-10-21T23:21:42.457Z,10.08
2022-10-21T23:24:10.812Z,10.69
2022-10-21T23:26:39.165Z,11.12
2022-10-21T23:29:07.416Z,11.34
2022-10-21T23:31:35.813Z,11.51
2022-10-21T23:34:06.123Z,11.47
2022-10-21T23:36:35.656Z,10.46
2022-10-21T23:39:04.801Z,10.82
2022-10-21T23:41:35.036Z,10.59
2022-10-21T23:44:03.328Z,10.13
2022-10-21T23:46:31.594Z,10.08
2022-10-21T23:48:59.933Z,9.88
2022-10-21T23:51:29.670Z,10.35
2022-10-21T23:53:57.953Z,10.93
2022-10-21T23:56:26.280Z,10.72
2022-10-21T23:58:54.510Z,10.82
